createdAt,value
2022-12-23T00:01:05.503Z,99912.41
2022-12-23T00:03:32.466Z,99915.16
2022-12-23T00:05:59.491Z,99910.94
2022-12-23T00:08:26.908Z,99907.19
2022-12-23T00:10:54.874Z,99913.38
2022-12-23T00:13:39.808Z,99914.00
2022-12-23T00:16:08.228Z,99910.59
2022-12-23T00:18:35.159Z,99906.22
2022-12-23T00:21:08.239Z,99905.41
2022-12-23T00:23:36.809Z,99901.38
2022-12-23T00:26:03.702Z,99908.69
2022-12-23T00:28:30.618Z,99909.63
2022-12-23T00:31:01.333Z,99911.75
2022-12-23T00:33:28.962Z,99917.09
2022-12-23T00:35:55.890Z,99919.16
2022-12-23T00:38:42.301Z,99911.91
2022-12-23T00:41:29.757Z,99920.50
2022-12-23T00:43:56.774Z,99920.81
2022-12-23T00:46:23.264Z,99930.22
2022-12-23T00:49:08.532Z,99929.56
2022-12-23T00:51:35.305Z,99929.72
2022-12-23T00:54:01.876Z,99925.53
2022-12-23T00:56:30.382Z,99923.91
2022-12-23T00:58:56.932Z,99923.41
2022-12-23T01:01:42.166Z,99929.59
2022-12-23T01:04:29.910Z,99925.69
2022-12-23T01:06:56.287Z,99937.53
2022-12-23T01:09:22.869Z,99938.84
2022-12-23T01:11:49.258Z,99944.69
2022-12-23T01:14:17.474Z,99946.13
2022-12-23T01:16:44.525Z,99953.13
2022-12-23T01:19:11.809Z,99956.56
2022-12-23T01:21:38.496Z,99954.72
2022-12-23T01:24:05.404Z,99953.44
2022-12-23T01:26:31.878Z,99955.34
2022-12-23T01:28:58.587Z,99956.06
2022-12-23T01:31:26.219Z,99955.72
2022-12-23T01:33:53.081Z,99966.41
2022-12-23T01:36:19.958Z,99966.47
2022-12-23T01:38:46.323Z,99970.00
2022-12-23T01:41:39.641Z,99964.44
2022-12-23T01:44:25.914Z,99968.38
2022-12-23T01:46:52.378Z,99970.97
2022-12-23T01:49:18.893Z,99977.75
2022-12-23T01:51:45.282Z,99978.13
2022-12-23T01:54:11.664Z,99983.81
2022-12-23T01:56:38.748Z,99976.81
2022-12-23T01:59:35.003Z,99983.13
2022-12-23T02:02:20.438Z,99979.38
2022-12-23T02:04:47.917Z,99982.50
2022-12-23T02:07:33.144Z,99975.81
2022-12-23T02:09:59.526Z,99979.91
2022-12-23T02:12:25.939Z,99976.81
2022-12-23T02:15:16.924Z,99974.22
2022-12-23T02:18:01.683Z,99972.91
2022-12-23T02:20:30.963Z,99973.44
2022-12-23T02:23:14.453Z,99980.41
2022-12-23T02:25:54.734Z,99984.13
2022-12-23T02:28:21.104Z,99990.78
2022-12-23T02:30:51.224Z,100003.16
2022-12-23T02:33:31.452Z,100000.69
2022-12-23T02:36:17.976Z,100005.22
2022-12-23T02:38:59.867Z,100015.44
2022-12-23T02:41:32.106Z,100023.41
2022-12-23T02:44:27.883Z,100021.97
2022-12-23T02:47:12.786Z,100019.19
2022-12-23T02:49:45.549Z,100029.94
2022-12-23T02:52:13.537Z,100026.19
2022-12-23T02:54:41.898Z,100030.56
2022-12-23T02:57:11.416Z,100025.34
2022-12-23T02:59:44.621Z,100031.22
2022-12-23T03:02:11.174Z,100029.88
2022-12-23T03:04:38.142Z,100039.16
2022-12-23T03:07:08.089Z,100048.28
2022-12-23T03:09:50.691Z,100055.09
2022-12-23T03:12:34.550Z,100059.94
2022-12-23T03:15:00.910Z,100064.00
2022-12-23T03:17:33.168Z,100071.31
2022-12-23T03:20:20.418Z,100078.78
2022-12-23T03:22:52.882Z,100081.84
2022-12-23T03:25:24.237Z,100089.81
2022-12-23T03:27:59.521Z,100091.75
2022-12-23T03:30:26.418Z,100078.09
2022-12-23T03:32:55.396Z,100068.88
2022-12-23T03:35:24.236Z,100059.44
2022-12-23T03:37:53.148Z,100062.38
2022-12-23T03:40:23.035Z,100070.66
2022-12-23T03:42:54.272Z,100071.59
2022-12-23T03:45:40.848Z,100069.31
2022-12-23T03:48:13.216Z,100060.88
2022-12-23T03:50:42.842Z,100067.88
2022-12-23T03:53:16.489Z,100065.44
2022-12-23T03:55:48.208Z,100063.81
2022-12-23T03:58:24.370Z,100062.69
2022-12-23T04:00:57.537Z,100058.78
2022-12-23T04:03:38.239Z,100058.28
2022-12-23T04:06:09.437Z,100054.56
2022-12-23T04:08:37.223Z,100066.88
2022-12-23T04:11:04.157Z,100066.25
2022-12-23T04:13:30.983Z,100076.47
2022-12-23T04:15:58.044Z,100072.59
2022-12-23T04:18:24.650Z,100066.25
2022-12-23T04:20:51.143Z,100063.34
2022-12-23T04:23:17.605Z,100054.06
2022-12-23T04:25:43.971Z,100052.59
2022-12-23T04:28:10.426Z,100071.28
2022-12-23T04:30:36.863Z,100073.72
2022-12-23T04:33:03.719Z,100077.19
2022-12-23T04:35:30.456Z,100070.00
2022-12-23T04:37:56.828Z,100058.94
2022-12-23T04:40:23.253Z,100073.25
2022-12-23T04:42:49.675Z,100074.38
2022-12-23T04:45:16.084Z,100066.41
2022-12-23T04:47:42.545Z,100080.88
2022-12-23T04:50:13.215Z,100086.75
2022-12-23T04:52:39.619Z,100087.06
2022-12-23T04:55:06.272Z,100080.38
2022-12-23T04:57:32.684Z,100085.13
2022-12-23T04:59:59.056Z,100083.66
2022-12-23T05:02:25.533Z,100089.97
2022-12-23T05:04:51.951Z,100094.38
2022-12-23T05:07:18.375Z,100086.25
2022-12-23T05:09:44.783Z,100093.38
2022-12-23T05:12:11.166Z,100092.13
2022-12-23T05:14:37.536Z,100090.63
2022-12-23T05:17:07.671Z,100095.84
2022-12-23T05:19:34.600Z,100098.56
2022-12-23T05:22:00.998Z,100094.03
2022-12-23T05:24:27.372Z,100094.50
2022-12-23T05:26:59.649Z,100086.38
2022-12-23T05:29:27.081Z,100092.41
2022-12-23T05:31:53.534Z,100091.13
2022-12-23T05:34:19.992Z,100096.97
2022-12-23T05:36:46.352Z,100092.56
2022-12-23T05:39:12.724Z,100084.13
2022-12-23T05:41:39.129Z,100094.38
2022-12-23T05:44:05.686Z,100098.25
2022-12-23T05:46:32.131Z,100104.63
2022-12-23T05:48:58.703Z,100114.84
2022-12-23T05:51:25.142Z,100118.25
2022-12-23T05:53:51.576Z,100127.19
2022-12-23T05:56:18.010Z,100128.50
2022-12-23T05:58:44.417Z,100132.22
2022-12-23T06:01:10.834Z,100137.25
2022-12-23T06:03:37.454Z,100147.81
2022-12-23T06:06:04.078Z,100152.84
2022-12-23T06:08:30.485Z,100149.94
2022-12-23T06:10:56.864Z,100160.19
2022-12-23T06:13:23.284Z,100160.00
2022-12-23T06:15:49.632Z,100158.84
2022-12-23T06:18:16.120Z,100146.84
2022-12-23T06:20:45.193Z,100149.59
2022-12-23T06:23:11.600Z,100139.03
2022-12-23T06:25:37.975Z,100133.34
2022-12-23T06:28:04.579Z,100141.50
2022-12-23T06:30:31.037Z,100126.19
2022-12-23T06:32:57.386Z,100122.63
2022-12-23T06:35:23.998Z,100131.91
2022-12-23T06:37:52.712Z,100129.97
2022-12-23T06:40:19.116Z,100118.88
2022-12-23T06:42:45.503Z,100117.94
2022-12-23T06:45:11.942Z,100122.31
2022-12-23T06:47:38.436Z,100113.41
2022-12-23T06:50:05.055Z,100115.00
2022-12-23T06:52:31.423Z,100120.06
2022-12-23T06:54:57.814Z,100119.41
2022-12-23T06:57:24.179Z,100116.16
2022-12-23T06:59:50.566Z,100112.91
2022-12-23T07:02:17.208Z,100108.69
2022-12-23T07:04:43.731Z,100106.25
2022-12-23T07:07:10.127Z,100113.56
2022-12-23T07:09:36.490Z,100118.44
2022-12-23T07:12:03.715Z,100128.50
2022-12-23T07:14:30.128Z,100145.41
2022-12-23T07:16:56.580Z,100164.25
2022-12-23T07:19:23.018Z,100174.63
2022-12-23T07:21:49.360Z,100171.22
2022-12-23T07:24:15.935Z,100173.50
2022-12-23T07:26:42.441Z,100184.69
2022-12-23T07:29:08.812Z,100181.94
2022-12-23T07:31:38.146Z,100193.78
2022-12-23T07:34:07.322Z,100189.59
2022-12-23T07:36:33.693Z,100185.66
2022-12-23T07:39:00.050Z,100179.66
2022-12-23T07:41:26.511Z,100190.06
2022-12-23T07:43:52.914Z,100194.59
2022-12-23T07:46:19.418Z,100188.25
2022-12-23T07:48:45.818Z,100197.53
2022-12-23T07:51:12.229Z,100187.44
2022-12-23T07:53:38.677Z,100181.78
2022-12-23T07:56:05.350Z,100189.41
2022-12-23T07:58:31.757Z,100174.16
2022-12-23T08:01:05.200Z,100178.53
2022-12-23T08:03:31.876Z,100186.16
2022-12-23T08:06:08.958Z,100179.34
2022-12-23T08:08:35.475Z,100177.56
2022-12-23T08:11:03.998Z,100185.00
2022-12-23T08:13:31.318Z,100186.50
2022-12-23T08:15:58.591Z,100174.97
2022-12-23T08:18:25.617Z,100176.41
2022-12-23T08:20:55.986Z,100180.16
2022-12-23T08:23:24.939Z,100181.94
2022-12-23T08:26:02.113Z,100165.03
2022-12-23T08:28:28.608Z,100169.09
2022-12-23T08:30:55.054Z,100163.56
2022-12-23T08:33:21.451Z,100156.44
2022-12-23T08:35:47.864Z,100158.03
2022-12-23T08:38:14.254Z,100157.91
2022-12-23T08:40:40.738Z,100154.50
2022-12-23T08:43:07.835Z,100152.03
2022-12-23T08:45:38.363Z,100158.06
2022-12-23T08:48:05.899Z,100152.69
2022-12-23T08:50:42.746Z,100159.84
2022-12-23T08:53:09.643Z,100145.69
2022-12-23T08:55:40.078Z,100156.91
2022-12-23T08:58:06.933Z,100158.88
2022-12-23T09:00:33.536Z,100161.63
2022-12-23T09:03:00.071Z,100158.38
2022-12-23T09:05:26.647Z,100167.81
2022-12-23T09:07:53.057Z,100165.84
2022-12-23T09:10:19.584Z,100160.97
2022-12-23T09:12:46.058Z,100158.84
2022-12-23T09:15:12.463Z,100165.69
2022-12-23T09:17:38.846Z,100167.97
2022-12-23T09:20:05.618Z,100165.19
2022-12-23T09:22:32.888Z,100166.03
2022-12-23T09:25:04.805Z,100143.09
2022-12-23T09:27:31.750Z,100150.25
2022-12-23T09:29:58.149Z,100138.22
2022-12-23T09:32:24.497Z,100141.31
2022-12-23T09:34:50.893Z,100146.03
2022-12-23T09:37:17.336Z,100145.06
2022-12-23T09:39:43.845Z,100129.78
2022-12-23T09:42:33.113Z,100109.63
2022-12-23T09:45:12.990Z,100128.44
2022-12-23T09:47:39.654Z,100133.50
2022-12-23T09:50:25.155Z,100130.38
2022-12-23T09:52:51.532Z,100125.84
2022-12-23T09:55:18.883Z,100118.72
2022-12-23T09:57:51.019Z,100098.72
2022-12-23T10:00:18.951Z,100099.53
2022-12-23T10:03:04.419Z,100103.41
2022-12-23T10:05:35.227Z,100082.94
2022-12-23T10:08:03.811Z,100088.63
2022-12-23T10:10:36.462Z,100092.34
2022-12-23T10:13:05.977Z,100089.41
2022-12-23T10:15:32.460Z,100098.84
2022-12-23T10:18:20.641Z,100084.25
2022-12-23T10:21:25.765Z,100076.88
2022-12-23T10:23:53.632Z,100054.66
2022-12-23T10:26:23.263Z,100046.34
2022-12-23T10:28:58.728Z,100041.34
2022-12-23T10:31:40.785Z,100036.41
2022-12-23T10:34:14.835Z,100030.22
2022-12-23T10:36:57.347Z,100043.72
2022-12-23T10:39:26.504Z,100041.88
2022-12-23T10:42:11.085Z,100042.03
2022-12-23T10:45:00.468Z,100047.50
2022-12-23T10:47:33.094Z,100034.16
2022-12-23T10:50:18.155Z,100033.00
2022-12-23T10:52:45.366Z,100034.63
2022-12-23T10:55:20.023Z,100023.88
2022-12-23T10:57:46.453Z,100004.63
2022-12-23T11:00:18.289Z,100005.19
2022-12-23T11:02:48.422Z,99998.56
2022-12-23T11:05:17.521Z,100005.09
2022-12-23T11:07:46.347Z,99990.28
2022-12-23T11:10:35.101Z,99990.09
2022-12-23T11:13:01.612Z,99990.25
2022-12-23T11:15:35.792Z,99983.75
2022-12-23T11:18:12.199Z,99985.28
2022-12-23T11:20:40.379Z,99986.66
2022-12-23T11:23:37.130Z,99976.53
2022-12-23T11:26:07.905Z,99972.84
2022-12-23T11:28:37.343Z,99962.53
2022-12-23T11:31:08.436Z,99951.56
2022-12-23T11:33:34.964Z,99941.22
2022-12-23T11:36:01.949Z,99934.59
2022-12-23T11:38:28.550Z,99940.00
2022-12-23T11:40:55.022Z,99932.91
2022-12-23T11:43:23.312Z,99913.34
2022-12-23T11:46:09.660Z,99912.69
2022-12-23T11:48:36.151Z,99896.09
2022-12-23T11:51:03.954Z,99889.97
2022-12-23T11:53:31.330Z,99880.56
2022-12-23T11:55:58.207Z,99868.53
2022-12-23T11:58:25.229Z,99861.72
2022-12-23T12:00:56.127Z,99846.25
2022-12-23T12:03:25.736Z,99850.81
2022-12-23T12:05:57.653Z,99833.59
2022-12-23T12:08:35.578Z,99832.44
2022-12-23T12:11:06.005Z,99827.22
2022-12-23T12:13:36.819Z,99829.66
2022-12-23T12:16:03.257Z,99832.28
2022-12-23T12:18:29.813Z,99826.59
2022-12-23T12:21:01.163Z,99820.31
2022-12-23T12:23:33.915Z,99824.91
2022-12-23T12:26:06.280Z,99820.88
2022-12-23T12:28:34.536Z,99826.41
2022-12-23T12:31:19.100Z,99811.59
2022-12-23T12:33:59.704Z,99803.00
2022-12-23T12:36:32.925Z,99793.19
2022-12-23T12:39:00.122Z,99794.44
2022-12-23T12:41:34.196Z,99791.13
2022-12-23T12:44:03.683Z,99787.44
2022-12-23T12:46:42.999Z,99782.09
2022-12-23T12:49:28.222Z,99769.69
2022-12-23T12:52:13.979Z,99747.69
2022-12-23T12:54:40.372Z,99736.97
2022-12-23T12:57:12.828Z,99738.72
2022-12-23T12:59:40.311Z,99737.09
2022-12-23T13:02:15.711Z,99729.03
2022-12-23T13:05:00.633Z,99730.47
2022-12-23T13:07:46.744Z,99720.78
2022-12-23T13:10:25.003Z,99699.34
2022-12-23T13:12:51.369Z,99702.66
2022-12-23T13:15:18.746Z,99719.97
2022-12-23T13:17:45.082Z,99722.69
2022-12-23T13:20:29.829Z,99705.72
2022-12-23T13:23:14.903Z,99676.81
2022-12-23T13:25:49.542Z,99660.50
2022-12-23T13:28:25.718Z,99664.91
2022-12-23T13:30:59.813Z,99667.41
2022-12-23T13:33:38.772Z,99648.59
2022-12-23T13:36:11.742Z,99624.81
2022-12-23T13:39:03.259Z,99642.94
2022-12-23T13:41:35.908Z,99650.41
2022-12-23T13:44:07.500Z,99639.44
2022-12-23T13:46:56.216Z,99631.19
2022-12-23T13:49:22.581Z,99624.72
2022-12-23T13:52:00.522Z,99608.78
2022-12-23T13:54:26.854Z,99597.59
2022-12-23T13:57:08.316Z,99586.63
2022-12-23T13:59:39.712Z,99587.41
2022-12-23T14:02:26.066Z,99578.72
2022-12-23T14:04:55.520Z,99571.38
2022-12-23T14:07:22.794Z,99576.78
2022-12-23T14:09:52.121Z,99571.91
2022-12-23T14:12:27.959Z,99569.84
2022-12-23T14:15:13.944Z,99560.91
2022-12-23T14:18:02.673Z,99554.00
2022-12-23T14:20:43.131Z,99571.38
2022-12-23T14:23:28.030Z,99571.56
2022-12-23T14:26:19.060Z,99561.34
2022-12-23T14:29:20.906Z,99568.78
2022-12-23T14:31:54.137Z,99551.94
2022-12-23T14:34:20.489Z,99556.50
2022-12-23T14:37:19.415Z,99558.47
2022-12-23T14:39:45.968Z,99550.06
2022-12-23T14:42:16.544Z,99535.25
2022-12-23T14:44:49.114Z,99530.50
2022-12-23T14:47:29.097Z,99532.03
2022-12-23T14:49:55.476Z,99538.50
2022-12-23T14:52:44.245Z,99532.72
2022-12-23T14:55:31.649Z,99528.97
2022-12-23T14:58:20.081Z,99536.22
2022-12-23T15:00:47.801Z,99536.66
2022-12-23T15:03:15.844Z,99537.19
2022-12-23T15:05:42.720Z,99533.84
2022-12-23T15:08:18.938Z,99535.19
2022-12-23T15:10:45.496Z,99530.88
2022-12-23T15:13:14.081Z,99525.78
2022-12-23T15:15:50.150Z,99522.66
2022-12-23T15:18:16.541Z,99525.13
2022-12-23T15:20:42.963Z,99519.00
2022-12-23T15:23:11.523Z,99525.94
2022-12-23T15:25:43.471Z,99522.06
2022-12-23T15:28:20.525Z,99522.31
2022-12-23T15:30:52.005Z,99529.34
2022-12-23T15:34:00.749Z,99532.75
2022-12-23T15:36:09.757Z,99517.44
2022-12-23T15:38:37.486Z,99519.50
2022-12-23T15:41:05.611Z,99528.31
2022-12-23T15:43:32.254Z,99528.63
2022-12-23T15:46:07.777Z,99525.22
2022-12-23T15:48:34.759Z,99530.53
2022-12-23T15:51:06.983Z,99532.47
2022-12-23T15:53:35.236Z,99531.41
2022-12-23T15:56:05.427Z,99528.56
2022-12-23T15:58:33.702Z,99537.22
2022-12-23T16:01:00.789Z,99534.91
2022-12-23T16:03:27.369Z,99540.72
2022-12-23T16:05:53.988Z,99547.69
2022-12-23T16:08:29.899Z,99557.91
2022-12-23T16:11:02.035Z,99558.47
2022-12-23T16:13:28.534Z,99556.00
2022-12-23T16:15:55.141Z,99557.75
2022-12-23T16:18:26.215Z,99560.66
2022-12-23T16:20:54.015Z,99568.34
2022-12-23T16:23:21.054Z,99560.84
2022-12-23T16:25:50.804Z,99570.44
2022-12-23T16:28:23.003Z,99568.59
2022-12-23T16:30:57.397Z,99564.38
2022-12-23T16:33:36.919Z,99575.66
2022-12-23T16:36:21.997Z,99570.16
2022-12-23T16:38:49.066Z,99583.06
2022-12-23T16:41:15.459Z,99586.88
2022-12-23T16:43:49.462Z,99585.47
2022-12-23T16:46:19.564Z,99590.50
2022-12-23T16:48:50.565Z,99598.38
2022-12-23T16:51:20.090Z,99597.38
2022-12-23T16:53:50.169Z,99598.91
2022-12-23T16:56:18.025Z,99605.97
2022-12-23T16:58:44.707Z,99620.97
2022-12-23T17:01:15.218Z,99618.66
2022-12-23T17:03:41.663Z,99627.63
2022-12-23T17:06:12.418Z,99624.94
2022-12-23T17:08:38.819Z,99630.84
2022-12-23T17:11:05.883Z,99641.66
2022-12-23T17:13:32.251Z,99654.28
2022-12-23T17:15:58.829Z,99660.69
2022-12-23T17:18:25.294Z,99653.84
2022-12-23T17:20:51.723Z,99658.75
2022-12-23T17:23:29.267Z,99661.28
2022-12-23T17:25:55.744Z,99673.50
2022-12-23T17:28:22.817Z,99676.50
2022-12-23T17:30:53.338Z,99667.19
2022-12-23T17:33:20.469Z,99677.97
2022-12-23T17:35:48.021Z,99691.16
2022-12-23T17:38:15.674Z,99691.97
2022-12-23T17:40:43.012Z,99699.72
2022-12-23T17:43:13.438Z,99698.31
2022-12-23T17:45:39.855Z,99700.72
2022-12-23T17:48:06.324Z,99710.59
2022-12-23T17:50:35.777Z,99708.91
2022-12-23T17:53:02.150Z,99714.38
2022-12-23T17:55:29.215Z,99719.28
2022-12-23T17:57:55.664Z,99715.84
2022-12-23T18:00:31.946Z,99727.03
2022-12-23T18:03:00.958Z,99714.59
2022-12-23T18:05:28.460Z,99717.00
2022-12-23T18:07:55.659Z,99713.19
2022-12-23T18:10:24.180Z,99715.34
2022-12-23T18:12:53.479Z,99715.34
2022-12-23T18:15:22.093Z,99732.19
2022-12-23T18:17:49.434Z,99733.38
2022-12-23T18:20:17.960Z,99737.38
2022-12-23T18:22:45.945Z,99737.38
2022-12-23T18:25:38.696Z,99750.16
2022-12-23T18:28:05.160Z,99754.94
2022-12-23T18:30:31.653Z,99759.22
2022-12-23T18:32:58.075Z,99763.00
2022-12-23T18:35:35.314Z,99753.31
2022-12-23T18:38:01.957Z,99756.16
2022-12-23T18:40:32.772Z,99761.38
2022-12-23T18:42:59.914Z,99769.19
2022-12-23T18:45:29.259Z,99769.13
2022-12-23T18:47:56.660Z,99771.81
2022-12-23T18:50:23.526Z,99780.81
2022-12-23T18:52:50.011Z,99784.56
2022-12-23T18:55:16.616Z,99783.41
2022-12-23T18:57:43.084Z,99783.94
2022-12-23T19:00:14.500Z,99796.19
2022-12-23T19:02:41.093Z,99794.97
2022-12-23T19:05:08.175Z,99790.97
2022-12-23T19:07:34.579Z,99791.56
2022-12-23T19:10:01.056Z,99792.22
2022-12-23T19:12:27.468Z,99800.53
2022-12-23T19:14:53.934Z,99796.69
2022-12-23T19:17:20.289Z,99794.63
2022-12-23T19:19:46.667Z,99797.84
2022-12-23T19:22:13.063Z,99798.56
2022-12-23T19:24:51.862Z,99800.91
2022-12-23T19:27:25.804Z,99799.38
2022-12-23T19:29:52.236Z,99804.69
2022-12-23T19:32:18.653Z,99803.06
2022-12-23T19:34:46.237Z,99805.13
2022-12-23T19:37:12.604Z,99817.09
2022-12-23T19:39:40.844Z,99816.63
2022-12-23T19:42:07.936Z,99821.97
2022-12-23T19:44:35.571Z,99828.63
2022-12-23T19:47:03.739Z,99837.16
2022-12-23T19:49:30.393Z,99837.41
2022-12-23T19:51:56.812Z,99845.41
2022-12-23T19:54:23.168Z,99847.13
2022-12-23T19:56:50.125Z,99851.34
2022-12-23T19:59:16.622Z,99862.38
2022-12-23T20:01:43.037Z,99860.59
2022-12-23T20:04:09.806Z,99866.78
2022-12-23T20:06:38.261Z,99881.78
2022-12-23T20:09:06.347Z,99883.13
2022-12-23T20:11:34.115Z,99885.81
2022-12-23T20:14:01.073Z,99887.19
2022-12-23T20:16:28.562Z,99886.53
2022-12-23T20:18:55.218Z,99889.59
2022-12-23T20:21:21.680Z,99901.34
2022-12-23T20:23:48.296Z,99909.25
2022-12-23T20:26:15.284Z,99908.38
2022-12-23T20:28:42.102Z,99909.53
2022-12-23T20:31:12.658Z,99910.16
2022-12-23T20:33:39.322Z,99911.97
2022-12-23T20:36:06.321Z,99927.41
2022-12-23T20:38:36.755Z,99929.84
2022-12-23T20:41:03.184Z,99929.84
2022-12-23T20:43:29.626Z,99937.47
2022-12-23T20:45:56.048Z,99951.22
2022-12-23T20:48:23.422Z,99962.44
2022-12-23T20:50:52.226Z,99956.22
2022-12-23T20:53:18.666Z,99965.13
2022-12-23T20:55:45.053Z,99969.44
2022-12-23T20:58:34.392Z,99975.22
2022-12-23T21:01:07.937Z,99980.16
2022-12-23T21:03:34.505Z,99974.13
2022-12-23T21:06:00.954Z,99985.88
2022-12-23T21:08:27.336Z,99989.00
2022-12-23T21:10:54.452Z,99987.38
2022-12-23T21:13:20.836Z,99986.34
2022-12-23T21:15:47.248Z,99984.41
2022-12-23T21:18:13.672Z,100009.13
2022-12-23T21:20:40.089Z,99993.16
2022-12-23T21:23:06.530Z,99996.81
2022-12-23T21:25:32.912Z,100009.50
2022-12-23T21:27:59.293Z,99997.56
2022-12-23T21:30:25.688Z,100007.84
2022-12-23T21:32:52.300Z,100006.59
2022-12-23T21:35:18.749Z,100010.53
2022-12-23T21:37:45.135Z,100019.69
2022-12-23T21:40:14.494Z,100021.66
2022-12-23T21:42:40.932Z,100033.03
2022-12-23T21:45:08.680Z,100024.25
2022-12-23T21:47:35.040Z,100034.81
2022-12-23T21:50:01.427Z,100035.97
2022-12-23T21:52:27.860Z,100036.97
2022-12-23T21:54:54.238Z,100051.25
2022-12-23T21:57:20.694Z,100050.63
2022-12-23T21:59:47.056Z,100064.59
2022-12-23T22:02:16.712Z,100053.53
2022-12-23T22:04:43.196Z,100057.59
2022-12-23T22:07:09.567Z,100057.78
2022-12-23T22:09:35.984Z,100061.19
2022-12-23T22:12:03.858Z,100063.59
2022-12-23T22:14:30.423Z,100064.78
2022-12-23T22:16:56.910Z,100062.84
2022-12-23T22:19:23.368Z,100062.00
2022-12-23T22:21:49.734Z,100081.66
2022-12-23T22:24:16.123Z,100082.16
2022-12-23T22:26:42.564Z,100089.47
2022-12-23T22:29:10.425Z,100100.72
2022-12-23T22:31:39.730Z,100094.88
2022-12-23T22:34:07.221Z,100101.06
2022-12-23T22:36:34.043Z,100105.09
2022-12-23T22:39:01.178Z,100109.34
2022-12-23T22:41:28.448Z,100126.09
2022-12-23T22:43:55.561Z,100128.72
2022-12-23T22:46:22.616Z,100129.34
2022-12-23T22:48:49.177Z,100139.75
2022-12-23T22:51:23.515Z,100154.25
2022-12-23T22:53:49.981Z,100132.94
2022-12-23T22:56:17.597Z,100141.91
2022-12-23T22:58:44.005Z,100151.66
2022-12-23T23:01:22.696Z,100153.94
2022-12-23T23:03:51.109Z,100151.34
2022-12-23T23:06:18.750Z,100164.69
2022-12-23T23:08:45.148Z,100163.72
2022-12-23T23:11:11.548Z,100163.88
2022-12-23T23:13:38.229Z,100165.50
2022-12-23T23:16:04.759Z,100174.81
2022-12-23T23:18:31.176Z,100174.97
2022-12-23T23:20:57.572Z,100167.16
2022-12-23T23:23:24.172Z,100174.41
2022-12-23T23:25:50.572Z,100181.31
2022-12-23T23:28:17.303Z,100172.50
2022-12-23T23:30:43.692Z,100182.25
2022-12-23T23:33:10.790Z,100188.78
2022-12-23T23:35:37.215Z,100186.66
2022-12-23T23:38:03.629Z,100185.84
2022-12-23T23:40:30.100Z,100188.63
2022-12-23T23:42:56.505Z,100194.97
2022-12-23T23:45:23.039Z,100195.47
2022-12-23T23:47:49.404Z,100200.34
2022-12-23T23:50:15.811Z,100208.16
2022-12-23T23:52:42.272Z,100211.75
2022-12-23T23:55:09.107Z,100207.34
2022-12-23T23:57:35.493Z,100210.78
